Time;durP1;ratioP1;P1;durP2;ratioP2;P2;SDS_P1;SDS_P2;PMS_P1;PMS_P2;Temp;Humidity;BMP_temperature;BMP_pressure;BME280_temperature;BME280_humidity;BME280_pressure;Samples;Min_cycle;Max_cycle;Signal;HPM_P1;HPM_P2
2023/08/01 00:01:31;;;;;;;6.40;4.45;;;18.20;99.90;;;;;;5051919;28;20029;-80
2023/08/01 00:03:57;;;;;;;7.13;4.20;;;18.20;99.90;;;;;;5051970;28;20455;-80
2023/08/01 00:06:24;;;;;;;7.03;4.50;;;18.20;99.90;;;;;;5050961;28;20037;-80
2023/08/01 00:08:50;;;;;;;7.97;4.95;;;18.20;99.90;;;;;;5050894;28;20095;-80
2023/08/01 00:11:16;;;;;;;3.83;3.25;;;18.20;99.90;;;;;;5052289;28;20033;-80
2023/08/01 00:13:43;;;;;;;5.20;4.40;;;18.20;99.90;;;;;;5050418;28;20033;-80
2023/08/01 00:16:09;;;;;;;8.18;3.60;;;18.20;99.90;;;;;;5052172;28;20029;-79
2023/08/01 00:18:35;;;;;;;3.50;3.03;;;18.00;99.90;;;;;;5052193;28;20029;-79
2023/08/01 00:21:01;;;;;;;3.50;2.35;;;18.00;99.90;;;;;;5052245;28;20036;-79
2023/08/01 00:23:26;;;;;;;4.65;2.70;;;18.00;99.90;;;;;;5055908;28;20402;-79
2023/08/01 00:25:52;;;;;;;4.05;2.65;;;18.00;99.90;;;;;;5055664;28;20040;-79
2023/08/01 00:28:18;;;;;;;3.70;2.28;;;18.00;99.90;;;;;;5055580;28;20033;-79
2023/08/01 00:30:44;;;;;;;5.30;2.13;;;18.00;99.90;;;;;;5055694;28;20029;-79
2023/08/01 00:33:10;;;;;;;5.65;2.60;;;18.00;99.90;;;;;;5055260;28;20442;-78
2023/08/01 00:35:35;;;;;;;6.13;2.63;;;18.00;99.90;;;;;;5055090;28;20037;-78
2023/08/01 00:38:01;;;;;;;3.58;2.17;;;17.90;99.90;;;;;;5055199;28;20083;-78
2023/08/01 00:40:31;;;;;;;3.45;1.60;;;17.90;99.90;;;;;;5055172;28;20029;-78
2023/08/01 00:42:57;;;;;;;2.97;1.58;;;17.90;99.90;;;;;;5053987;28;20511;-79
2023/08/01 00:45:24;;;;;;;4.18;1.70;;;17.90;99.90;;;;;;5055119;28;20129;-79
2023/08/01 00:47:51;;;;;;;2.72;1.63;;;17.90;99.90;;;;;;5055294;28;20087;-79
2023/08/01 00:50:20;;;;;;;6.70;1.80;;;17.90;99.90;;;;;;5055211;28;20045;-79
2023/08/01 00:52:46;;;;;;;4.20;1.73;;;17.90;99.90;;;;;;5055216;28;20032;-79
2023/08/01 00:55:13;;;;;;;4.68;1.73;;;18.00;99.90;;;;;;5054903;28;20032;-80
2023/08/01 00:57:39;;;;;;;5.72;2.30;;;18.00;99.90;;;;;;5040065;28;20068;-79
2023/08/01 01:00:05;;;;;;;4.07;1.95;;;17.90;99.90;;;;;;5033701;28;20034;-79
2023/08/01 01:02:30;;;;;;;5.88;2.13;;;17.90;99.90;;;;;;5054681;28;20036;-79
2023/08/01 01:04:56;;;;;;;6.50;2.28;;;17.90;99.90;;;;;;5054582;28;20041;-79
2023/08/01 01:07:23;;;;;;;5.07;2.45;;;17.90;99.90;;;;;;5054367;28;20175;-79
2023/08/01 01:09:50;;;;;;;5.15;2.28;;;17.90;99.90;;;;;;5054703;28;20525;-79
2023/08/01 01:12:16;;;;;;;5.82;2.67;;;17.90;99.90;;;;;;5054898;28;20385;-79
2023/08/01 01:14:41;;;;;;;3.72;2.10;;;18.00;99.90;;;;;;5049348;28;20029;-79
2023/08/01 01:17:07;;;;;;;4.05;1.55;;;18.00;99.90;;;;;;5034480;28;20029;-79
2023/08/01 01:19:33;;;;;;;5.45;2.75;;;18.00;99.90;;;;;;5034721;28;20409;-78
2023/08/01 01:21:59;;;;;;;4.82;2.05;;;18.00;99.90;;;;;;5034491;28;20080;-79
2023/08/01 01:24:25;;;;;;;5.07;2.00;;;18.00;99.90;;;;;;5033356;28;20041;-79
2023/08/01 01:26:52;;;;;;;3.20;1.60;;;18.00;99.90;;;;;;5034411;28;20029;-79
2023/08/01 01:29:19;;;;;;;5.07;2.50;;;18.00;99.90;;;;;;5034268;28;20026;-79
2023/08/01 01:31:46;;;;;;;4.95;2.25;;;18.00;99.90;;;;;;5034815;28;20060;-79
2023/08/01 01:34:12;;;;;;;5.60;2.78;;;18.00;99.90;;;;;;5034356;28;20029;-79
2023/08/01 01:36:38;;;;;;;6.53;3.03;;;18.00;99.90;;;;;;5034767;28;20140;-78
2023/08/01 01:39:03;;;;;;;4.95;2.63;;;18.00;99.90;;;;;;5034502;28;20390;-79
2023/08/01 01:41:29;;;;;;;4.75;3.00;;;18.00;99.90;;;;;;5035559;28;20029;-79
2023/08/01 01:43:55;;;;;;;8.52;3.05;;;18.00;99.90;;;;;;5017690;28;20038;-79
2023/08/01 01:46:20;;;;;;;4.53;2.78;;;18.00;99.90;;;;;;5050132;28;20079;-79
2023/08/01 01:48:46;;;;;;;9.90;4.00;;;18.00;99.90;;;;;;5035074;28;20523;-80
2023/08/01 01:51:11;;;;;;;7.13;3.72;;;17.90;99.90;;;;;;5034352;28;20030;-78
2023/08/01 01:53:37;;;;;;;4.10;3.35;;;17.90;99.90;;;;;;5034132;28;20033;-81
2023/08/01 01:56:03;;;;;;;8.27;3.63;;;17.90;99.90;;;;;;5033274;28;20029;-80
2023/08/01 01:58:28;;;;;;;8.48;3.92;;;17.80;99.90;;;;;;5033626;28;20068;-80
2023/08/01 02:00:54;;;;;;;5.30;2.95;;;17.80;99.90;;;;;;5033924;28;20064;-80
2023/08/01 02:03:20;;;;;;;9.60;3.83;;;17.80;99.90;;;;;;5033781;28;20120;-80
2023/08/01 02:05:45;;;;;;;4.82;3.35;;;17.80;99.90;;;;;;5031761;28;20037;-80
2023/08/01 02:08:11;;;;;;;9.20;4.15;;;17.80;99.90;;;;;;5034194;28;20030;-81
2023/08/01 02:10:36;;;;;;;11.43;4.25;;;17.80;99.90;;;;;;5034313;28;20033;-81
2023/08/01 02:13:02;;;;;;;7.85;5.03;;;17.80;99.90;;;;;;5033538;28;20026;-79
2023/08/01 02:15:28;;;;;;;7.32;4.05;;;17.70;99.90;;;;;;5032237;28;20195;-80
2023/08/01 02:17:54;;;;;;;8.02;4.20;;;17.70;99.90;;;;;;5033526;28;20462;-80
2023/08/01 02:20:19;;;;;;;5.97;3.65;;;17.70;99.90;;;;;;5033417;28;20029;-79
2023/08/01 02:22:45;;;;;;;7.60;3.63;;;17.70;99.90;;;;;;5033396;28;20046;-79
2023/08/01 02:25:11;;;;;;;8.77;4.82;;;17.70;99.90;;;;;;5033269;28;20381;-80
2023/08/01 02:27:37;;;;;;;10.18;4.47;;;17.70;99.90;;;;;;5033036;28;20480;-80
2023/08/01 02:30:03;;;;;;;8.63;4.30;;;17.60;99.90;;;;;;5032094;28;20041;-80
2023/08/01 02:32:28;;;;;;;9.07;4.43;;;17.60;99.90;;;;;;5033284;28;20025;-80
2023/08/01 02:34:54;;;;;;;8.52;4.20;;;17.50;99.90;;;;;;5031784;28;20034;-80
2023/08/01 02:37:19;;;;;;;14.77;4.82;;;17.60;99.90;;;;;;5032616;28;20389;-80
2023/08/01 02:39:45;;;;;;;11.63;4.40;;;17.50;99.90;;;;;;5033480;28;20036;-80
2023/08/01 02:42:11;;;;;;;10.77;4.30;;;17.50;99.90;;;;;;5033249;28;20132;-79
2023/08/01 02:44:36;;;;;;;10.27;3.92;;;17.50;99.90;;;;;;5032157;28;20080;-79
2023/08/01 02:47:02;;;;;;;7.70;3.42;;;17.50;99.90;;;;;;5033344;28;20125;-80
2023/08/01 02:49:28;;;;;;;10.07;4.38;;;17.50;99.90;;;;;;5032800;28;20037;-79
2023/08/01 02:51:53;;;;;;;11.82;4.28;;;17.50;99.90;;;;;;5031493;28;20136;-79
2023/08/01 02:54:19;;;;;;;10.23;4.20;;;17.50;99.90;;;;;;5031674;28;20041;-78
2023/08/01 02:56:44;;;;;;;8.82;4.30;;;17.40;99.90;;;;;;5032857;28;20040;-78
2023/08/01 02:59:10;;;;;;;8.70;4.15;;;17.40;99.90;;;;;;5031679;28;20033;-79
2023/08/01 03:01:36;;;;;;;9.45;4.40;;;17.30;99.90;;;;;;5031629;28;20442;-78
2023/08/01 03:04:03;;;;;;;9.90;4.43;;;17.30;99.90;;;;;;5032780;28;20087;-79
2023/08/01 03:06:29;;;;;;;13.95;4.72;;;17.30;99.90;;;;;;5032459;28;20033;-79
2023/08/01 03:08:55;;;;;;;12.23;4.43;;;17.30;99.90;;;;;;5031471;28;20047;-79
2023/08/01 03:11:20;;;;;;;10.27;4.72;;;17.20;99.90;;;;;;5032604;28;20029;-79
2023/08/01 03:13:46;;;;;;;16.20;4.88;;;17.20;99.90;;;;;;5032759;28;20382;-80
2023/08/01 03:16:12;;;;;;;11.30;5.30;;;17.20;99.90;;;;;;5031635;28;20133;-78
2023/08/01 03:18:37;;;;;;;10.68;4.63;;;17.20;99.90;;;;;;5032701;28;20526;-79
2023/08/01 03:21:03;;;;;;;14.93;5.40;;;17.10;99.90;;;;;;5031218;28;20026;-79
2023/08/01 03:23:30;;;;;;;10.82;4.70;;;17.10;99.90;;;;;;5032197;28;20053;-79
2023/08/01 03:25:55;;;;;;;13.75;5.53;;;17.10;99.90;;;;;;5031971;28;20041;-79
2023/08/01 03:28:21;;;;;;;11.07;5.25;;;17.10;99.90;;;;;;5032340;28;20030;-79
2023/08/01 03:30:49;;;;;;;17.83;5.75;;;17.10;99.90;;;;;;5033196;28;20116;-78
2023/08/01 03:33:18;;;;;;;12.30;5.88;;;17.00;99.90;;;;;;5052449;28;20036;-78
2023/08/01 03:35:44;;;;;;;12.07;5.65;;;17.00;99.90;;;;;;5051739;28;20127;-78
2023/08/01 03:38:09;;;;;;;11.70;4.75;;;17.10;99.90;;;;;;5051945;28;20029;-78
2023/08/01 03:40:36;;;;;;;11.93;4.63;;;17.10;99.90;;;;;;5052099;28;20035;-78
2023/08/01 03:43:01;;;;;;;14.77;6.05;;;17.10;99.90;;;;;;5052425;28;20034;-78
2023/08/01 03:45:27;;;;;;;13.90;5.63;;;17.10;99.90;;;;;;5051212;28;20040;-78
2023/08/01 03:47:53;;;;;;;10.23;5.20;;;17.20;99.90;;;;;;5051402;28;20029;-77
2023/08/01 03:50:18;;;;;;;9.57;5.18;;;17.20;99.90;;;;;;5054049;28;20056;-78
2023/08/01 03:52:45;;;;;;;13.48;6.05;;;17.20;99.90;;;;;;5057488;28;20033;-78
2023/08/01 03:55:11;;;;;;;15.88;5.93;;;17.30;99.90;;;;;;5053448;28;20083;-78
2023/08/01 03:57:38;;;;;;;15.40;5.65;;;17.20;99.90;;;;;;5056650;28;20116;-79
2023/08/01 04:00:13;;;;;;;20.73;6.22;;;17.20;99.90;;;;;;5046023;28;20048;-79
2023/08/01 04:02:41;;;;;;;17.80;5.78;;;17.20;99.90;;;;;;5035048;28;20363;-79
2023/08/01 04:05:06;;;;;;;12.07;5.47;;;17.10;99.90;;;;;;5035822;28;20108;-79
2023/08/01 04:07:32;;;;;;;14.85;5.55;;;17.10;99.90;;;;;;5035602;28;20037;-80
2023/08/01 04:09:58;;;;;;;16.45;4.95;;;17.10;99.90;;;;;;5034639;28;20516;-78
2023/08/01 04:12:23;;;;;;;12.55;4.72;;;17.10;99.90;;;;;;5035793;28;20434;-79
2023/08/01 04:14:49;;;;;;;16.67;5.28;;;17.00;99.90;;;;;;5036045;28;20079;-80
2023/08/01 04:17:14;;;;;;;17.33;5.43;;;17.00;99.90;;;;;;5034437;28;20049;-80
2023/08/01 04:19:40;;;;;;;16.85;5.20;;;17.00;99.90;;;;;;5034803;28;20036;-80
2023/08/01 04:22:06;;;;;;;13.95;5.22;;;17.00;99.90;;;;;;5033852;28;20474;-80
2023/08/01 04:24:31;;;;;;;11.73;4.63;;;17.00;99.90;;;;;;5035684;28;20042;-80
2023/08/01 04:26:57;;;;;;;14.07;5.50;;;17.00;99.90;;;;;;5035978;28;20034;-80
2023/08/01 04:29:23;;;;;;;16.20;5.13;;;17.00;99.90;;;;;;5034253;28;20033;-80
2023/08/01 04:31:48;;;;;;;13.13;5.05;;;17.00;99.90;;;;;;5035595;28;20346;-80
2023/08/01 04:34:14;;;;;;;17.10;5.30;;;17.00;99.90;;;;;;5034128;28;20091;-80
2023/08/01 04:36:39;;;;;;;13.50;4.97;;;17.00;99.90;;;;;;5033849;28;20104;-80
2023/08/01 04:39:05;;;;;;;9.75;5.43;;;17.00;99.90;;;;;;5035477;28;20470;-80
2023/08/01 04:41:31;;;;;;;14.68;5.35;;;17.00;99.90;;;;;;5035624;28;20052;-79
2023/08/01 04:43:57;;;;;;;13.30;5.32;;;17.00;99.90;;;;;;5035266;28;20428;-81
2023/08/01 04:46:22;;;;;;;16.73;5.70;;;17.00;99.90;;;;;;5035536;28;20037;-79
2023/08/01 04:48:48;;;;;;;14.38;5.30;;;16.90;99.90;;;;;;5035185;28;20112;-80
2023/08/01 04:51:13;;;;;;;12.25;5.18;;;16.90;99.90;;;;;;5035353;28;20137;-80
2023/08/01 04:53:39;;;;;;;9.48;4.07;;;17.00;99.90;;;;;;5034810;28;20128;-79
2023/08/01 04:56:05;;;;;;;12.65;4.80;;;17.10;99.90;;;;;;5034801;28;20037;-79
2023/08/01 04:58:31;;;;;;;14.27;4.75;;;17.10;99.90;;;;;;5017158;28;20482;-80
2023/08/01 05:00:56;;;;;;;13.00;4.63;;;17.10;99.90;;;;;;5033581;28;20037;-79
2023/08/01 05:03:22;;;;;;;19.40;5.88;;;17.10;99.90;;;;;;5033566;28;20505;-79
2023/08/01 05:05:47;;;;;;;11.43;4.72;;;17.00;99.90;;;;;;5033483;28;20071;-79
2023/08/01 05:08:13;;;;;;;11.98;4.28;;;17.10;99.90;;;;;;5033659;28;20075;-81
2023/08/01 05:10:38;;;;;;;12.52;4.55;;;17.10;99.90;;;;;;5034681;28;20021;-80
2023/08/01 05:13:04;;;;;;;13.38;4.90;;;17.20;99.90;;;;;;5033249;28;20045;-80
2023/08/01 05:15:30;;;;;;;16.50;5.13;;;17.20;99.90;;;;;;5034636;28;20026;-81
2023/08/01 05:17:55;;;;;;;11.20;4.18;;;17.10;99.90;;;;;;5033167;28;20112;-80
2023/08/01 05:20:21;;;;;;;14.43;4.40;;;17.10;99.90;;;;;;5033165;28;20037;-80
2023/08/01 05:22:47;;;;;;;15.93;5.18;;;17.10;99.90;;;;;;5034052;28;20061;-80
2023/08/01 05:25:13;;;;;;;15.45;5.38;;;17.10;99.90;;;;;;5032991;28;20124;-80
2023/08/01 05:27:38;;;;;;;12.18;4.82;;;17.10;99.90;;;;;;5033108;28;20386;-81
2023/08/01 05:30:04;;;;;;;13.05;4.97;;;17.10;99.90;;;;;;5034173;28;20029;-80
2023/08/01 05:32:30;;;;;;;11.75;4.53;;;17.10;99.90;;;;;;5033359;28;20033;-80
2023/08/01 05:34:55;;;;;;;8.63;3.83;;;17.20;99.90;;;;;;5034228;28;20031;-79
2023/08/01 05:37:21;;;;;;;16.50;4.78;;;17.20;99.90;;;;;;5033461;28;20084;-80
2023/08/01 05:39:47;;;;;;;10.95;4.07;;;17.20;99.90;;;;;;5034042;28;20438;-79
2023/08/01 05:42:12;;;;;;;21.25;5.00;;;17.20;99.90;;;;;;5032749;28;20068;-80
2023/08/01 05:44:38;;;;;;;16.10;4.70;;;17.30;99.90;;;;;;5032893;28;20470;-79
2023/08/01 05:47:04;;;;;;;14.80;5.07;;;17.30;99.90;;;;;;5034284;28;20036;-81
2023/08/01 05:49:30;;;;;;;12.77;4.88;;;17.30;99.90;;;;;;5033905;28;20033;-80
2023/08/01 05:51:55;;;;;;;13.43;4.82;;;17.40;99.90;;;;;;5034360;28;20474;-77
2023/08/01 05:54:21;;;;;;;14.52;5.50;;;17.30;99.90;;;;;;5034018;28;20044;-81
2023/08/01 05:56:47;;;;;;;13.05;5.00;;;17.40;99.90;;;;;;5032843;28;20049;-87
2023/08/01 05:59:12;;;;;;;14.63;5.55;;;17.30;99.90;;;;;;5035222;28;20037;-84
2023/08/01 06:01:38;;;;;;;16.30;5.70;;;17.40;99.90;;;;;;5033304;28;20367;-81
2023/08/01 06:04:04;;;;;;;17.30;5.88;;;17.40;99.90;;;;;;5034830;28;20386;-83
2023/08/01 06:06:29;;;;;;;16.10;5.43;;;17.40;99.90;;;;;;5034512;28;20381;-83
2023/08/01 06:08:55;;;;;;;12.82;4.35;;;17.40;99.90;;;;;;5041709;28;20429;-80
2023/08/01 06:11:22;;;;;;;13.38;5.20;;;17.40;99.90;;;;;;5041877;28;20112;-81
2023/08/01 06:13:47;;;;;;;16.60;4.80;;;17.40;99.90;;;;;;5018346;28;20148;-81
2023/08/01 06:16:13;;;;;;;15.10;5.10;;;17.50;99.90;;;;;;5032961;28;20448;-81
2023/08/01 06:18:39;;;;;;;15.38;5.32;;;17.50;99.90;;;;;;5034160;28;20037;-80
2023/08/01 06:21:04;;;;;;;13.02;4.70;;;17.40;99.90;;;;;;5032986;28;20049;-80
2023/08/01 06:23:30;;;;;;;11.93;4.28;;;17.40;99.90;;;;;;5013914;28;20445;-80
2023/08/01 06:25:56;;;;;;;14.82;5.05;;;17.40;99.90;;;;;;4996159;28;20084;-80
2023/08/01 06:28:22;;;;;;;10.23;4.32;;;17.40;99.90;;;;;;5012524;28;20034;-83
2023/08/01 06:30:47;;;;;;;16.48;5.53;;;17.50;99.90;;;;;;5013701;28;20037;-79
2023/08/01 06:33:13;;;;;;;10.07;4.13;;;17.50;99.90;;;;;;5013616;28;20173;-80
2023/08/01 06:35:39;;;;;;;12.30;4.85;;;17.40;99.90;;;;;;5012940;28;20406;-81
2023/08/01 06:38:04;;;;;;;10.43;4.22;;;17.50;99.90;;;;;;5016441;28;20026;-80
2023/08/01 06:40:30;;;;;;;15.05;4.03;;;17.50;99.90;;;;;;5031841;28;20433;-80
2023/08/01 06:42:55;;;;;;;13.07;4.30;;;17.50;99.90;;;;;;5032028;28;20025;-81
2023/08/01 06:45:21;;;;;;;18.02;4.78;;;17.60;99.90;;;;;;5025681;28;20033;-79
2023/08/01 06:47:47;;;;;;;10.40;4.00;;;17.60;99.90;;;;;;5017077;28;20112;-79
2023/08/01 06:50:12;;;;;;;10.75;4.25;;;17.60;99.90;;;;;;5017815;28;20480;-78
2023/08/01 06:52:38;;;;;;;13.98;3.95;;;17.70;99.90;;;;;;5025975;28;20026;-81
2023/08/01 06:55:04;;;;;;;12.38;4.15;;;17.70;99.90;;;;;;5013387;28;20053;-81
2023/08/01 06:57:30;;;;;;;13.63;4.70;;;17.80;99.90;;;;;;5012079;28;20359;-81
2023/08/01 06:59:56;;;;;;;11.80;3.97;;;17.70;99.90;;;;;;5013340;28;20530;-81
2023/08/01 07:02:22;;;;;;;9.75;3.70;;;17.80;99.90;;;;;;5011642;28;20117;-80
2023/08/01 07:04:47;;;;;;;11.50;3.72;;;17.80;99.90;;;;;;5013171;28;20071;-82
2023/08/01 07:07:13;;;;;;;12.52;3.72;;;17.80;99.90;;;;;;5012814;28;20034;-81
2023/08/01 07:09:39;;;;;;;11.15;3.50;;;17.80;99.90;;;;;;5013246;28;20057;-81
2023/08/01 07:12:05;;;;;;;15.18;3.95;;;17.90;99.90;;;;;;5012922;28;20038;-81
2023/08/01 07:14:31;;;;;;;11.00;3.80;;;17.90;99.90;;;;;;5011604;28;20113;-78
2023/08/01 07:16:56;;;;;;;13.55;3.85;;;17.90;99.90;;;;;;5012071;28;20034;-81
2023/08/01 07:19:22;;;;;;;11.50;3.70;;;18.00;99.90;;;;;;5015693;28;20037;-82
2023/08/01 07:21:48;;;;;;;10.65;3.85;;;18.00;99.90;;;;;;5018354;28;20410;-81
2023/08/01 07:24:14;;;;;;;12.32;3.88;;;18.00;99.90;;;;;;5032991;28;20095;-81
2023/08/01 07:26:40;;;;;;;14.32;3.97;;;18.10;99.90;;;;;;5032629;28;20129;-81
2023/08/01 07:29:08;;;;;;;10.27;3.30;;;18.10;99.90;;;;;;5033204;28;20133;-81
2023/08/01 07:31:34;;;;;;;11.68;2.88;;;18.10;99.90;;;;;;5035366;28;20037;-81
2023/08/01 07:33:59;;;;;;;11.50;3.05;;;18.20;99.90;;;;;;5036663;28;20037;-82
2023/08/01 07:36:26;;;;;;;11.00;3.60;;;18.30;99.90;;;;;;5036356;28;20525;-83
2023/08/01 07:38:52;;;;;;;11.95;3.28;;;18.30;99.90;;;;;;5035208;28;20069;-82
2023/08/01 07:41:18;;;;;;;9.10;2.35;;;18.40;99.90;;;;;;5035714;28;20091;-81
2023/08/01 07:43:44;;;;;;;6.60;1.90;;;18.40;99.90;;;;;;5040287;28;20089;-81
2023/08/01 07:46:11;;;;;;;12.77;2.47;;;18.50;99.90;;;;;;5040216;28;20036;-83
2023/08/01 07:48:37;;;;;;;8.98;2.50;;;18.60;99.90;;;;;;5040865;28;20032;-80
2023/08/01 07:51:05;;;;;;;9.23;2.35;;;18.60;99.90;;;;;;5042059;28;20087;-82
2023/08/01 07:53:31;;;;;;;7.82;2.22;;;18.60;99.90;;;;;;5040763;28;20029;-81
2023/08/01 07:55:57;;;;;;;7.60;1.95;;;18.60;99.90;;;;;;5041630;28;20100;-80
2023/08/01 07:58:22;;;;;;;5.25;1.85;;;18.80;99.90;;;;;;5039929;28;20041;-80
2023/08/01 08:00:48;;;;;;;7.50;2.10;;;18.80;99.90;;;;;;5041318;28;20041;-82
2023/08/01 08:03:14;;;;;;;6.72;1.50;;;18.90;99.90;;;;;;5039214;28;20056;-82
2023/08/01 08:05:40;;;;;;;7.13;2.60;;;18.90;99.90;;;;;;5039674;28;20059;-81
2023/08/01 08:08:06;;;;;;;6.72;1.48;;;18.90;99.90;;;;;;5041325;28;20029;-79
2023/08/01 08:10:32;;;;;;;6.47;2.13;;;18.90;99.90;;;;;;5041709;28;20112;-81
2023/08/01 08:12:57;;;;;;;4.68;1.90;;;18.90;99.90;;;;;;5044558;28;20030;-80
2023/08/01 08:15:24;;;;;;;6.82;1.90;;;19.00;99.90;;;;;;5026191;28;20097;-82
2023/08/01 08:17:50;;;;;;;7.93;1.88;;;19.00;99.90;;;;;;5040213;28;20588;-80
2023/08/01 08:20:15;;;;;;;11.13;1.92;;;18.90;99.90;;;;;;5037706;28;20030;-81
2023/08/01 08:22:41;;;;;;;6.53;1.60;;;18.80;99.90;;;;;;5038575;28;20050;-80
2023/08/01 08:25:07;;;;;;;8.68;2.30;;;18.60;99.90;;;;;;5036326;28;20037;-82
2023/08/01 08:27:33;;;;;;;8.82;2.35;;;18.60;99.90;;;;;;5037864;28;20030;-82
2023/08/01 08:29:58;;;;;;;7.63;2.80;;;18.40;99.90;;;;;;5020370;28;20074;-81
2023/08/01 08:32:24;;;;;;;7.85;2.00;;;18.30;99.90;;;;;;5039489;28;20044;-81
2023/08/01 08:34:49;;;;;;;8.45;2.20;;;18.20;99.90;;;;;;5038108;28;20038;-81
2023/08/01 08:37:15;;;;;;;7.55;2.10;;;18.30;99.90;;;;;;5037545;28;20021;-81
2023/08/01 08:39:41;;;;;;;10.10;2.25;;;18.50;99.90;;;;;;5023506;28;20385;-80
2023/08/01 08:42:06;;;;;;;12.35;2.53;;;18.60;99.90;;;;;;5055982;28;20029;-80
2023/08/01 08:44:41;;;;;;;8.50;2.65;;;18.70;99.90;;;;;;5045916;28;20473;-78
2023/08/01 08:47:08;;;;;;;7.43;2.10;;;18.70;99.90;;;;;;5047830;28;20037;-78
2023/08/01 08:49:34;;;;;;;8.80;2.28;;;18.80;99.90;;;;;;5045963;28;20028;-78
2023/08/01 08:52:00;;;;;;;9.57;2.25;;;18.90;99.90;;;;;;5047010;28;20116;-79
2023/08/01 08:54:26;;;;;;;7.70;1.90;;;19.10;99.90;;;;;;5049195;28;20377;-79
2023/08/01 08:56:53;;;;;;;5.78;2.00;;;19.20;99.90;;;;;;5051153;28;20094;-79
2023/08/01 08:59:19;;;;;;;10.75;2.33;;;19.30;99.90;;;;;;5055714;28;20040;-79
2023/08/01 09:01:45;;;;;;;4.65;1.48;;;19.30;99.90;;;;;;5056809;28;20214;-79
2023/08/01 09:04:11;;;;;;;5.80;1.48;;;19.30;99.90;;;;;;5057571;28;20130;-79
2023/08/01 09:06:49;;;;;;;6.10;1.60;;;19.30;99.90;;;;;;5057186;28;20029;-79
2023/08/01 09:09:15;;;;;;;8.55;1.90;;;19.30;99.90;;;;;;5042871;28;20055;-80
2023/08/01 09:11:51;;;;;;;6.13;1.55;;;19.40;99.90;;;;;;5034613;28;20368;-80
2023/08/01 09:14:17;;;;;;;6.68;1.85;;;19.50;99.90;;;;;;5035030;28;20029;-80
2023/08/01 09:16:44;;;;;;;12.60;1.95;;;19.60;99.90;;;;;;5033760;28;20029;-79
2023/08/01 09:19:12;;;;;;;7.78;1.23;;;19.70;99.90;;;;;;5034682;28;20042;-80
2023/08/01 09:21:39;;;;;;;5.72;1.27;;;19.90;99.90;;;;;;5034575;28;20108;-80
2023/08/01 09:24:12;;;;;;;4.55;1.08;;;19.90;99.90;;;;;;5033178;28;20057;-79
2023/08/01 09:26:38;;;;;;;4.93;1.17;;;19.90;99.90;;;;;;5034694;28;20021;-79
2023/08/01 09:29:04;;;;;;;7.53;1.00;;;20.00;99.90;;;;;;5034726;28;20536;-79
2023/08/01 09:31:31;;;;;;;4.28;1.05;;;20.00;99.90;;;;;;5034039;28;20030;-79
2023/08/01 09:33:57;;;;;;;7.88;0.93;;;20.00;99.90;;;;;;5034708;28;20037;-79
2023/08/01 09:36:23;;;;;;;4.57;0.80;;;20.00;99.90;;;;;;5034509;28;20034;-80
2023/08/01 09:38:49;;;;;;;7.97;1.40;;;19.90;99.90;;;;;;5036455;28;20030;-79
2023/08/01 09:41:19;;;;;;;4.47;0.80;;;19.80;99.90;;;;;;5034205;28;20033;-81
2023/08/01 09:43:46;;;;;;;6.70;0.82;;;19.80;99.90;;;;;;5034235;28;20466;-81
2023/08/01 09:46:12;;;;;;;2.92;1.13;;;19.80;99.90;;;;;;5034488;28;20049;-80
2023/08/01 09:48:38;;;;;;;5.38;0.95;;;19.80;99.90;;;;;;5034571;28;20057;-81
2023/08/01 09:51:12;;;;;;;5.88;1.10;;;19.90;99.90;;;;;;5032891;28;20523;-81
2023/08/01 09:53:52;;;;;;;7.95;1.27;;;19.90;99.90;;;;;;5041311;28;20040;-80
2023/08/01 09:56:23;;;;;;;6.20;1.13;;;19.90;99.90;;;;;;5053823;28;20029;-81
2023/08/01 09:58:49;;;;;;;5.00;0.80;;;20.00;99.90;;;;;;5038580;28;20030;-80
2023/08/01 10:01:16;;;;;;;3.90;1.25;;;19.90;99.90;;;;;;5032634;28;20045;-81
2023/08/01 10:03:50;;;;;;;4.40;1.27;;;20.00;99.90;;;;;;5033668;28;20114;-81
2023/08/01 10:06:20;;;;;;;7.15;1.10;;;20.10;99.90;;;;;;5033624;28;20025;-80
2023/08/01 10:08:47;;;;;;;6.70;1.17;;;20.20;99.90;;;;;;5047672;28;20072;-80
2023/08/01 10:11:23;;;;;;;4.60;1.05;;;20.30;99.90;;;;;;5052184;28;20446;-82
2023/08/01 10:13:49;;;;;;;3.60;1.00;;;20.20;99.80;;;;;;5053596;28;20036;-80
2023/08/01 10:16:15;;;;;;;5.70;1.10;;;20.40;99.90;;;;;;5053593;28;20044;-80
2023/08/01 10:18:42;;;;;;;5.43;1.10;;;20.50;99.90;;;;;;5053769;28;20032;-80
2023/08/01 10:21:11;;;;;;;5.00;1.05;;;20.70;99.70;;;;;;5053037;28;20587;-80
2023/08/01 10:23:38;;;;;;;6.15;1.02;;;20.90;99.90;;;;;;5053825;28;20045;-81
2023/08/01 10:26:06;;;;;;;6.75;0.90;;;21.00;98.80;;;;;;5054221;28;20124;-80
2023/08/01 10:28:36;;;;;;;5.65;0.90;;;21.10;98.00;;;;;;5032739;28;20036;-81
2023/08/01 10:31:13;;;;;;;4.75;0.95;;;21.20;98.10;;;;;;5034484;28;20052;-82
2023/08/01 10:33:41;;;;;;;6.18;1.15;;;21.20;98.30;;;;;;5035419;28;20038;-83
2023/08/01 10:36:23;;;;;;;2.97;0.73;;;21.30;97.70;;;;;;5033919;28;20079;-84
2023/08/01 10:38:50;;;;;;;;;;;21.30;97.40;;;;;;5034037;28;20488;-82
2023/08/01 10:41:28;;;;;;;6.55;1.05;;;21.30;96.70;;;;;;5033560;28;19905;-81
2023/08/01 10:44:05;;;;;;;5.00;0.80;;;21.30;96.90;;;;;;5033438;28;20038;-82
2023/08/01 10:46:53;;;;;;;3.40;0.93;;;21.50;97.00;;;;;;5033970;28;20033;-80
2023/08/01 10:49:21;;;;;;;4.78;0.90;;;21.60;95.40;;;;;;5042354;28;20039;-81
2023/08/01 10:51:47;;;;;;;3.33;1.08;;;21.50;95.60;;;;;;5052833;28;20456;-81
2023/08/01 10:54:24;;;;;;;4.30;1.00;;;21.50;95.50;;;;;;5051280;28;20068;-81
2023/08/01 10:56:52;;;;;;;4.63;0.80;;;21.50;95.70;;;;;;5051500;28;20028;-80
2023/08/01 10:59:18;;;;;;;4.32;1.00;;;21.40;95.60;;;;;;5052818;28;20120;-81
2023/08/01 11:01:48;;;;;;;4.57;0.80;;;21.30;95.80;;;;;;5051817;28;20029;-82
2023/08/01 11:04:22;;;;;;;5.47;0.90;;;21.30;95.80;;;;;;5052214;28;20052;-83
2023/08/01 11:06:59;;;;;;;6.65;1.42;;;21.30;96.70;;;;;;5038881;28;20075;-82
2023/08/01 11:09:27;;;;;;;5.38;1.00;;;21.40;97.20;;;;;;5033947;28;20355;-82
2023/08/01 11:11:58;;;;;;;7.07;1.25;;;21.50;97.20;;;;;;5047488;28;20063;-82
2023/08/01 11:14:26;;;;;;;6.50;1.25;;;21.40;97.00;;;;;;5049976;28;20033;-83
2023/08/01 11:16:55;;;;;;;6.03;1.25;;;21.40;97.20;;;;;;5052085;28;20052;-82
2023/08/01 11:19:25;;;;;;;6.05;1.00;;;21.50;95.40;;;;;;5051474;28;20381;-83
2023/08/01 11:21:52;;;;;;;3.83;0.93;;;21.60;95.60;;;;;;5052843;28;20029;-83
2023/08/01 11:24:19;;;;;;;6.13;1.55;;;21.70;96.00;;;;;;5051260;28;20049;-82
2023/08/01 11:26:46;;;;;;;5.95;1.30;;;21.90;96.00;;;;;;5052535;28;20029;-81
2023/08/01 11:29:13;;;;;;;6.32;0.80;;;22.10;94.00;;;;;;5051180;28;20059;-82
2023/08/01 11:31:41;;;;;;;8.32;1.30;;;22.10;94.50;;;;;;5053441;28;20037;-82
2023/08/01 11:34:09;;;;;;;5.15;1.15;;;22.20;95.00;;;;;;5035799;28;20175;-78
2023/08/01 11:36:35;;;;;;;4.88;0.98;;;22.20;94.10;;;;;;5056493;28;20060;-81
2023/08/01 11:39:02;;;;;;;2.55;0.60;;;22.20;93.20;;;;;;5053760;28;20040;-82
2023/08/01 11:41:28;;;;;;;5.90;0.90;;;22.30;94.10;;;;;;5040933;28;20214;-80
2023/08/01 11:43:57;;;;;;;6.45;1.05;;;22.20;94.20;;;;;;5032425;28;20465;-79
2023/08/01 11:46:30;;;;;;;5.65;1.30;;;22.10;94.30;;;;;;5032366;28;20025;-81
2023/08/01 11:48:55;;;;;;;5.22;1.30;;;22.10;94.20;;;;;;5032000;28;20428;-80
2023/08/01 11:51:21;;;;;;;4.22;0.95;;;22.10;94.20;;;;;;5014694;28;20033;-81
2023/08/01 11:53:57;;;;;;;4.25;0.80;;;22.20;94.50;;;;;;5032207;28;20132;-80
2023/08/01 11:56:23;;;;;;;3.72;0.80;;;22.30;94.30;;;;;;5041856;28;20032;-80
2023/08/01 11:58:49;;;;;;;4.75;0.90;;;22.30;93.50;;;;;;5055510;28;20123;-82
2023/08/01 12:01:15;;;;;;;4.78;0.90;;;22.30;92.10;;;;;;5052161;28;20426;-80
2023/08/01 12:03:46;;;;;;;3.92;0.90;;;22.20;92.60;;;;;;5053486;28;20477;-81
2023/08/01 12:06:13;;;;;;;6.85;0.90;;;21.90;92.20;;;;;;5051454;28;20354;-84
2023/08/01 12:08:41;;;;;;;3.72;0.88;;;21.90;92.70;;;;;;5052810;28;20037;-82
2023/08/01 12:11:17;;;;;;;3.67;0.70;;;22.00;92.70;;;;;;5051078;28;20036;-84
2023/08/01 12:13:43;;;;;;;3.60;0.73;;;22.10;92.10;;;;;;5052567;28;20029;-84
2023/08/01 12:16:08;;;;;;;3.88;0.70;;;21.90;91.90;;;;;;5052628;28;20032;-80
2023/08/01 12:18:34;;;;;;;5.20;0.70;;;21.70;92.50;;;;;;5056085;28;20048;-85
2023/08/01 12:21:00;;;;;;;3.45;0.60;;;21.60;92.60;;;;;;5056258;28;20382;-84
2023/08/01 12:23:25;;;;;;;5.25;0.90;;;21.50;93.00;;;;;;5054654;28;20049;-84
2023/08/01 12:25:51;;;;;;;6.03;0.90;;;21.40;92.80;;;;;;5056888;28;20484;-85
2023/08/01 12:28:17;;;;;;;4.80;0.80;;;21.30;93.40;;;;;;5055149;28;20456;-84
2023/08/01 12:30:44;;;;;;;6.20;1.00;;;21.10;93.40;;;;;;5056513;28;20035;-84
2023/08/01 12:33:09;;;;;;;3.45;0.57;;;21.00;93.40;;;;;;5038589;28;20057;-84
2023/08/01 12:35:40;;;;;;;4.70;0.57;;;20.90;93.70;;;;;;5038611;28;20056;-83
2023/08/01 12:38:06;;;;;;;3.90;0.60;;;20.70;93.70;;;;;;5055704;28;20029;-85
2023/08/01 12:40:32;;;;;;;4.15;0.50;;;20.70;94.00;;;;;;5056681;28;20103;-86